sensor_id;sensor_type;location;lat;lon;timestamp;P1;durP1;ratioP1;P2;durP2;ratioP2
4047;SDS011;2038;51.728;6.674;2023-07-29T00:01:36;4.17;;;3.77;;
4047;SDS011;2038;51.728;6.674;2023-07-29T00:04:05;4.20;;;3.80;;
4047;SDS011;2038;51.728;6.674;2023-07-29T00:06:31;7.27;;;3.70;;
4047;SDS011;2038;51.728;6.674;2023-07-29T00:08:57;6.93;;;3.60;;
4047;SDS011;2038;51.728;6.674;2023-07-29T00:11:23;5.77;;;4.20;;
4047;SDS011;2038;51.728;6.674;2023-07-29T00:13:49;3.60;;;3.30;;
4047;SDS011;2038;51.728;6.674;2023-07-29T00:16:16;12.50;;;3.30;;
4047;SDS011;2038;51.728;6.674;2023-07-29T00:18:43;6.27;;;4.20;;
4047;SDS011;2038;51.728;6.674;2023-07-29T00:21:09;6.00;;;3.20;;
4047;SDS011;2038;51.728;6.674;2023-07-29T00:23:35;3.73;;;3.33;;
4047;SDS011;2038;51.728;6.674;2023-07-29T00:26:01;3.67;;;3.37;;
4047;SDS011;2038;51.728;6.674;2023-07-29T00:28:28;4.13;;;3.73;;
4047;SDS011;2038;51.728;6.674;2023-07-29T00:30:54;5.90;;;4.10;;
4047;SDS011;2038;51.728;6.674;2023-07-29T00:33:20;4.60;;;3.80;;
4047;SDS011;2038;51.728;6.674;2023-07-29T00:35:47;3.70;;;3.33;;
4047;SDS011;2038;51.728;6.674;2023-07-29T00:38:13;3.50;;;3.20;;
4047;SDS011;2038;51.728;6.674;2023-07-29T00:40:39;4.40;;;3.27;;
4047;SDS011;2038;51.728;6.674;2023-07-29T00:43:06;3.40;;;3.00;;
4047;SDS011;2038;51.728;6.674;2023-07-29T00:45:32;3.70;;;3.40;;
4047;SDS011;2038;51.728;6.674;2023-07-29T00:48:00;3.30;;;3.00;;
4047;SDS011;2038;51.728;6.674;2023-07-29T00:50:27;7.20;;;3.30;;
4047;SDS011;2038;51.728;6.674;2023-07-29T00:52:56;6.93;;;3.87;;
4047;SDS011;2038;51.728;6.674;2023-07-29T00:55:23;5.40;;;3.40;;
4047;SDS011;2038;51.728;6.674;2023-07-29T00:57:50;8.50;;;4.07;;
4047;SDS011;2038;51.728;6.674;2023-07-29T01:00:19;4.17;;;3.77;;
4047;SDS011;2038;51.728;6.674;2023-07-29T01:02:46;7.60;;;3.90;;
4047;SDS011;2038;51.728;6.674;2023-07-29T01:05:14;7.33;;;4.20;;
4047;SDS011;2038;51.728;6.674;2023-07-29T01:13:37;4.80;;;4.10;;
4047;SDS011;2038;51.728;6.674;2023-07-29T01:16:30;4.70;;;4.10;;
4047;SDS011;2038;51.728;6.674;2023-07-29T01:19:18;4.20;;;3.80;;
4047;SDS011;2038;51.728;6.674;2023-07-29T01:22:08;8.03;;;3.90;;
4047;SDS011;2038;51.728;6.674;2023-07-29T01:24:38;3.53;;;3.23;;
4047;SDS011;2038;51.728;6.674;2023-07-29T01:27:05;3.60;;;3.10;;
4047;SDS011;2038;51.728;6.674;2023-07-29T01:29:31;5.60;;;3.10;;
4047;SDS011;2038;51.728;6.674;2023-07-29T01:31:59;4.23;;;3.53;;
4047;SDS011;2038;51.728;6.674;2023-07-29T01:34:39;4.10;;;3.50;;
4047;SDS011;2038;51.728;6.674;2023-07-29T01:37:22;4.80;;;3.80;;
4047;SDS011;2038;51.728;6.674;2023-07-29T01:39:52;3.90;;;3.50;;
4047;SDS011;2038;51.728;6.674;2023-07-29T01:42:22;3.90;;;3.60;;
4047;SDS011;2038;51.728;6.674;2023-07-29T01:44:49;4.53;;;3.40;;
4047;SDS011;2038;51.728;6.674;2023-07-29T01:47:16;5.53;;;3.83;;
4047;SDS011;2038;51.728;6.674;2023-07-29T01:49:42;4.90;;;4.10;;
4047;SDS011;2038;51.728;6.674;2023-07-29T01:52:08;4.30;;;3.90;;
4047;SDS011;2038;51.728;6.674;2023-07-29T01:54:34;4.10;;;3.70;;
4047;SDS011;2038;51.728;6.674;2023-07-29T01:57:01;4.30;;;4.00;;
4047;SDS011;2038;51.728;6.674;2023-07-29T01:59:27;4.03;;;3.63;;
4047;SDS011;2038;51.728;6.674;2023-07-29T02:01:53;4.97;;;4.47;;
4047;SDS011;2038;51.728;6.674;2023-07-29T02:04:19;4.67;;;3.67;;
4047;SDS011;2038;51.728;6.674;2023-07-29T02:06:46;4.50;;;4.10;;
4047;SDS011;2038;51.728;6.674;2023-07-29T02:09:12;3.87;;;3.47;;
4047;SDS011;2038;51.728;6.674;2023-07-29T02:11:38;3.67;;;3.37;;
4047;SDS011;2038;51.728;6.674;2023-07-29T02:14:04;4.30;;;3.90;;
4047;SDS011;2038;51.728;6.674;2023-07-29T02:16:31;4.00;;;3.60;;
4047;SDS011;2038;51.728;6.674;2023-07-29T02:18:59;4.30;;;3.90;;
4047;SDS011;2038;51.728;6.674;2023-07-29T02:21:25;4.03;;;3.73;;
4047;SDS011;2038;51.728;6.674;2023-07-29T02:23:51;5.57;;;4.30;;
4047;SDS011;2038;51.728;6.674;2023-07-29T02:26:18;4.70;;;4.30;;
4047;SDS011;2038;51.728;6.674;2023-07-29T02:28:44;4.33;;;3.60;;
4047;SDS011;2038;51.728;6.674;2023-07-29T02:33:46;4.80;;;4.27;;
4047;SDS011;2038;51.728;6.674;2023-07-29T02:36:13;6.77;;;4.90;;
4047;SDS011;2038;51.728;6.674;2023-07-29T02:38:40;4.87;;;4.37;;
4047;SDS011;2038;51.728;6.674;2023-07-29T02:41:10;5.70;;;4.13;;
4047;SDS011;2038;51.728;6.674;2023-07-29T02:43:41;4.97;;;4.47;;
4047;SDS011;2038;51.728;6.674;2023-07-29T02:46:08;4.00;;;3.70;;
4047;SDS011;2038;51.728;6.674;2023-07-29T02:48:35;5.13;;;4.63;;
4047;SDS011;2038;51.728;6.674;2023-07-29T02:51:01;7.63;;;4.50;;
4047;SDS011;2038;51.728;6.674;2023-07-29T02:53:27;6.03;;;5.03;;
4047;SDS011;2038;51.728;6.674;2023-07-29T02:55:53;5.87;;;4.73;;
4047;SDS011;2038;51.728;6.674;2023-07-29T02:58:20;5.67;;;4.57;;
4047;SDS011;2038;51.728;6.674;2023-07-29T03:00:46;5.70;;;4.50;;
4047;SDS011;2038;51.728;6.674;2023-07-29T03:03:13;5.37;;;4.87;;
4047;SDS011;2038;51.728;6.674;2023-07-29T03:05:39;5.20;;;4.70;;
4047;SDS011;2038;51.728;6.674;2023-07-29T03:08:06;10.50;;;5.50;;
4047;SDS011;2038;51.728;6.674;2023-07-29T03:10:34;5.00;;;4.50;;
4047;SDS011;2038;51.728;6.674;2023-07-29T03:13:03;8.50;;;6.23;;
4047;SDS011;2038;51.728;6.674;2023-07-29T03:15:30;8.30;;;6.73;;
4047;SDS011;2038;51.728;6.674;2023-07-29T03:17:58;6.60;;;6.00;;
4047;SDS011;2038;51.728;6.674;2023-07-29T03:20:25;7.13;;;6.43;;
4047;SDS011;2038;51.728;6.674;2023-07-29T03:22:51;7.87;;;7.13;;
4047;SDS011;2038;51.728;6.674;2023-07-29T03:25:17;6.03;;;5.53;;
4047;SDS011;2038;51.728;6.674;2023-07-29T03:27:43;7.20;;;6.57;;
4047;SDS011;2038;51.728;6.674;2023-07-29T03:30:10;7.20;;;6.50;;
4047;SDS011;2038;51.728;6.674;2023-07-29T03:32:38;7.40;;;6.70;;
4047;SDS011;2038;51.728;6.674;2023-07-29T03:35:09;11.00;;;7.00;;
4047;SDS011;2038;51.728;6.674;2023-07-29T03:37:35;8.87;;;7.30;;
4047;SDS011;2038;51.728;6.674;2023-07-29T03:40:02;7.60;;;6.90;;
4047;SDS011;2038;51.728;6.674;2023-07-29T03:42:29;8.77;;;6.97;;
4047;SDS011;2038;51.728;6.674;2023-07-29T03:44:55;7.40;;;6.70;;
4047;SDS011;2038;51.728;6.674;2023-07-29T03:47:21;7.17;;;6.57;;
4047;SDS011;2038;51.728;6.674;2023-07-29T03:49:48;7.50;;;6.80;;
4047;SDS011;2038;51.728;6.674;2023-07-29T03:52:14;9.80;;;8.47;;
4047;SDS011;2038;51.728;6.674;2023-07-29T03:54:40;8.17;;;7.37;;
4047;SDS011;2038;51.728;6.674;2023-07-29T03:57:07;9.90;;;8.90;;
4047;SDS011;2038;51.728;6.674;2023-07-29T03:59:33;9.40;;;7.30;;
4047;SDS011;2038;51.728;6.674;2023-07-29T04:01:59;9.27;;;8.37;;
4047;SDS011;2038;51.728;6.674;2023-07-29T04:04:25;7.97;;;7.03;;
4047;SDS011;2038;51.728;6.674;2023-07-29T04:06:52;8.20;;;7.33;;
4047;SDS011;2038;51.728;6.674;2023-07-29T04:09:18;9.90;;;7.93;;
4047;SDS011;2038;51.728;6.674;2023-07-29T04:11:44;10.20;;;8.60;;
4047;SDS011;2038;51.728;6.674;2023-07-29T04:14:10;10.17;;;8.80;;
4047;SDS011;2038;51.728;6.674;2023-07-29T04:16:37;12.20;;;9.27;;
4047;SDS011;2038;51.728;6.674;2023-07-29T04:19:03;10.90;;;9.87;;
4047;SDS011;2038;51.728;6.674;2023-07-29T04:21:29;10.67;;;9.53;;
4047;SDS011;2038;51.728;6.674;2023-07-29T04:23:55;11.07;;;9.97;;
4047;SDS011;2038;51.728;6.674;2023-07-29T04:26:22;12.93;;;11.70;;
4047;SDS011;2038;51.728;6.674;2023-07-29T04:28:48;15.90;;;12.77;;
4047;SDS011;2038;51.728;6.674;2023-07-29T04:31:15;13.87;;;12.47;;
4047;SDS011;2038;51.728;6.674;2023-07-29T04:33:41;13.60;;;12.20;;
4047;SDS011;2038;51.728;6.674;2023-07-29T04:36:07;12.93;;;11.53;;
4047;SDS011;2038;51.728;6.674;2023-07-29T04:38:33;12.67;;;11.37;;
4047;SDS011;2038;51.728;6.674;2023-07-29T04:41:02;13.00;;;11.43;;
4047;SDS011;2038;51.728;6.674;2023-07-29T04:43:32;13.10;;;11.17;;
4047;SDS011;2038;51.728;6.674;2023-07-29T04:45:58;15.70;;;12.80;;
4047;SDS011;2038;51.728;6.674;2023-07-29T04:48:24;12.10;;;11.00;;
4047;SDS011;2038;51.728;6.674;2023-07-29T04:50:51;12.67;;;11.47;;
4047;SDS011;2038;51.728;6.674;2023-07-29T04:53:17;12.07;;;10.83;;
4047;SDS011;2038;51.728;6.674;2023-07-29T04:55:43;11.93;;;10.60;;
4047;SDS011;2038;51.728;6.674;2023-07-29T04:58:10;12.60;;;11.17;;
4047;SDS011;2038;51.728;6.674;2023-07-29T05:00:37;10.40;;;9.37;;
4047;SDS011;2038;51.728;6.674;2023-07-29T05:03:03;10.73;;;9.60;;
4047;SDS011;2038;51.728;6.674;2023-07-29T05:05:29;15.23;;;8.20;;
4047;SDS011;2038;51.728;6.674;2023-07-29T05:07:55;8.80;;;7.60;;
4047;SDS011;2038;51.728;6.674;2023-07-29T05:10:21;13.30;;;7.70;;
4047;SDS011;2038;51.728;6.674;2023-07-29T05:12:48;7.80;;;6.87;;
4047;SDS011;2038;51.728;6.674;2023-07-29T05:15:14;9.27;;;7.80;;
4047;SDS011;2038;51.728;6.674;2023-07-29T05:17:40;11.50;;;7.37;;
4047;SDS011;2038;51.728;6.674;2023-07-29T05:20:07;7.67;;;6.97;;
4047;SDS011;2038;51.728;6.674;2023-07-29T05:22:33;8.80;;;7.23;;
4047;SDS011;2038;51.728;6.674;2023-07-29T05:25:00;8.30;;;7.50;;
4047;SDS011;2038;51.728;6.674;2023-07-29T05:27:26;12.17;;;8.10;;
4047;SDS011;2038;51.728;6.674;2023-07-29T05:29:52;9.83;;;8.87;;
4047;SDS011;2038;51.728;6.674;2023-07-29T05:32:18;10.93;;;7.40;;
4047;SDS011;2038;51.728;6.674;2023-07-29T05:34:44;11.80;;;9.50;;
4047;SDS011;2038;51.728;6.674;2023-07-29T05:37:11;12.70;;;10.03;;
4047;SDS011;2038;51.728;6.674;2023-07-29T05:39:37;13.77;;;10.67;;
4047;SDS011;2038;51.728;6.674;2023-07-29T05:42:03;11.80;;;10.70;;
4047;SDS011;2038;51.728;6.674;2023-07-29T05:44:30;15.23;;;11.10;;
4047;SDS011;2038;51.728;6.674;2023-07-29T05:46:56;12.07;;;8.83;;
4047;SDS011;2038;51.728;6.674;2023-07-29T05:49:23;13.33;;;11.13;;
4047;SDS011;2038;51.728;6.674;2023-07-29T05:51:49;11.40;;;10.20;;
4047;SDS011;2038;51.728;6.674;2023-07-29T05:54:17;11.03;;;9.83;;
4047;SDS011;2038;51.728;6.674;2023-07-29T05:56:44;9.13;;;8.17;;
4047;SDS011;2038;51.728;6.674;2023-07-29T05:59:10;11.47;;;8.40;;
4047;SDS011;2038;51.728;6.674;2023-07-29T06:01:36;10.33;;;8.63;;
4047;SDS011;2038;51.728;6.674;2023-07-29T06:04:03;7.80;;;7.10;;
4047;SDS011;2038;51.728;6.674;2023-07-29T06:06:29;10.17;;;7.57;;
4047;SDS011;2038;51.728;6.674;2023-07-29T06:08:55;10.80;;;7.90;;
4047;SDS011;2038;51.728;6.674;2023-07-29T06:11:21;10.13;;;6.30;;
4047;SDS011;2038;51.728;6.674;2023-07-29T06:13:48;9.27;;;6.97;;
4047;SDS011;2038;51.728;6.674;2023-07-29T06:16:14;8.90;;;5.93;;
4047;SDS011;2038;51.728;6.674;2023-07-29T06:18:40;8.93;;;6.67;;
4047;SDS011;2038;51.728;6.674;2023-07-29T06:21:07;8.23;;;6.80;;
4047;SDS011;2038;51.728;6.674;2023-07-29T06:23:36;10.83;;;6.63;;
4047;SDS011;2038;51.728;6.674;2023-07-29T06:26:02;7.30;;;5.40;;
4047;SDS011;2038;51.728;6.674;2023-07-29T06:28:29;7.53;;;5.70;;
4047;SDS011;2038;51.728;6.674;2023-07-29T06:30:55;13.63;;;6.90;;
4047;SDS011;2038;51.728;6.674;2023-07-29T06:33:21;7.47;;;5.80;;
4047;SDS011;2038;51.728;6.674;2023-07-29T06:35:47;6.87;;;5.50;;
4047;SDS011;2038;51.728;6.674;2023-07-29T06:38:14;8.13;;;6.60;;
4047;SDS011;2038;51.728;6.674;2023-07-29T06:40:44;9.27;;;5.50;;
4047;SDS011;2038;51.728;6.674;2023-07-29T06:43:10;7.73;;;5.63;;
4047;SDS011;2038;51.728;6.674;2023-07-29T06:45:36;12.53;;;5.77;;
4047;SDS011;2038;51.728;6.674;2023-07-29T06:48:03;11.53;;;5.60;;
4047;SDS011;2038;51.728;6.674;2023-07-29T06:50:29;7.40;;;5.00;;
4047;SDS011;2038;51.728;6.674;2023-07-29T06:52:55;9.23;;;5.83;;
4047;SDS011;2038;51.728;6.674;2023-07-29T06:55:21;9.00;;;5.60;;
4047;SDS011;2038;51.728;6.674;2023-07-29T06:57:48;5.10;;;4.33;;
4047;SDS011;2038;51.728;6.674;2023-07-29T07:00:14;7.53;;;5.60;;
4047;SDS011;2038;51.728;6.674;2023-07-29T07:02:40;10.50;;;5.30;;
4047;SDS011;2038;51.728;6.674;2023-07-29T07:05:07;7.67;;;5.33;;
4047;SDS011;2038;51.728;6.674;2023-07-29T07:07:33;7.03;;;5.40;;
4047;SDS011;2038;51.728;6.674;2023-07-29T07:09:59;6.80;;;5.43;;
4047;SDS011;2038;51.728;6.674;2023-07-29T07:12:26;8.20;;;5.40;;
4047;SDS011;2038;51.728;6.674;2023-07-29T07:14:52;6.67;;;4.90;;
4047;SDS011;2038;51.728;6.674;2023-07-29T07:17:18;5.50;;;4.07;;
4047;SDS011;2038;51.728;6.674;2023-07-29T07:19:44;6.50;;;4.60;;
4047;SDS011;2038;51.728;6.674;2023-07-29T07:22:11;6.13;;;4.53;;
4047;SDS011;2038;51.728;6.674;2023-07-29T07:24:37;7.37;;;4.10;;
4047;SDS011;2038;51.728;6.674;2023-07-29T07:27:04;4.90;;;4.20;;
4047;SDS011;2038;51.728;6.674;2023-07-29T07:29:30;6.07;;;4.83;;
4047;SDS011;2038;51.728;6.674;2023-07-29T07:31:56;8.10;;;4.53;;
4047;SDS011;2038;51.728;6.674;2023-07-29T07:34:23;6.70;;;4.40;;
4047;SDS011;2038;51.728;6.674;2023-07-29T07:36:50;6.60;;;4.77;;
4047;SDS011;2038;51.728;6.674;2023-07-29T07:39:16;5.70;;;3.90;;
4047;SDS011;2038;51.728;6.674;2023-07-29T07:41:43;6.20;;;3.87;;
4047;SDS011;2038;51.728;6.674;2023-07-29T07:44:09;6.70;;;3.83;;
4047;SDS011;2038;51.728;6.674;2023-07-29T07:46:37;6.90;;;3.80;;
4047;SDS011;2038;51.728;6.674;2023-07-29T07:49:04;7.60;;;3.30;;
4047;SDS011;2038;51.728;6.674;2023-07-29T07:51:30;4.63;;;3.67;;
4047;SDS011;2038;51.728;6.674;2023-07-29T07:53:56;4.20;;;3.50;;
4047;SDS011;2038;51.728;6.674;2023-07-29T07:56:22;5.27;;;3.90;;
4047;SDS011;2038;51.728;6.674;2023-07-29T07:58:49;8.43;;;3.60;;
4047;SDS011;2038;51.728;6.674;2023-07-29T08:01:15;5.53;;;3.60;;
4047;SDS011;2038;51.728;6.674;2023-07-29T08:03:41;3.43;;;3.00;;
4047;SDS011;2038;51.728;6.674;2023-07-29T08:06:07;3.40;;;2.80;;
4047;SDS011;2038;51.728;6.674;2023-07-29T08:08:34;3.23;;;2.93;;
4047;SDS011;2038;51.728;6.674;2023-07-29T08:11:00;6.70;;;3.50;;
4047;SDS011;2038;51.728;6.674;2023-07-29T08:13:26;4.27;;;2.73;;
4047;SDS011;2038;51.728;6.674;2023-07-29T08:15:53;4.00;;;2.80;;
4047;SDS011;2038;51.728;6.674;2023-07-29T08:18:19;4.40;;;2.30;;
4047;SDS011;2038;51.728;6.674;2023-07-29T08:20:55;4.97;;;2.77;;
4047;SDS011;2038;51.728;6.674;2023-07-29T08:23:26;5.30;;;3.13;;
4047;SDS011;2038;51.728;6.674;2023-07-29T08:25:56;6.70;;;3.93;;
4047;SDS011;2038;51.728;6.674;2023-07-29T08:28:33;3.47;;;3.00;;
4047;SDS011;2038;51.728;6.674;2023-07-29T08:31:02;5.17;;;4.00;;
4047;SDS011;2038;51.728;6.674;2023-07-29T08:33:30;3.33;;;2.80;;
4047;SDS011;2038;51.728;6.674;2023-07-29T08:35:58;6.07;;;3.70;;
4047;SDS011;2038;51.728;6.674;2023-07-29T08:38:25;3.83;;;2.73;;
4047;SDS011;2038;51.728;6.674;2023-07-29T08:43:35;4.00;;;3.10;;
4047;SDS011;2038;51.728;6.674;2023-07-29T08:46:10;5.93;;;2.67;;
4047;SDS011;2038;51.728;6.674;2023-07-29T08:48:40;3.30;;;3.00;;
4047;SDS011;2038;51.728;6.674;2023-07-29T08:51:11;3.60;;;2.90;;
4047;SDS011;2038;51.728;6.674;2023-07-29T08:53:38;3.83;;;2.80;;
4047;SDS011;2038;51.728;6.674;2023-07-29T08:56:05;2.60;;;2.37;;
4047;SDS011;2038;51.728;6.674;2023-07-29T08:58:32;3.23;;;2.40;;
4047;SDS011;2038;51.728;6.674;2023-07-29T09:01:00;3.13;;;2.83;;
4047;SDS011;2038;51.728;6.674;2023-07-29T09:03:27;3.93;;;2.97;;
4047;SDS011;2038;51.728;6.674;2023-07-29T09:05:53;2.90;;;2.60;;
4047;SDS011;2038;51.728;6.674;2023-07-29T09:08:23;4.43;;;3.80;;
4047;SDS011;2038;51.728;6.674;2023-07-29T09:10:51;3.60;;;3.07;;
4047;SDS011;2038;51.728;6.674;2023-07-29T09:13:20;3.53;;;3.13;;
4047;SDS011;2038;51.728;6.674;2023-07-29T09:15:46;3.00;;;1.97;;
4047;SDS011;2038;51.728;6.674;2023-07-29T09:18:17;3.47;;;2.60;;
4047;SDS011;2038;51.728;6.674;2023-07-29T09:20:48;3.03;;;2.77;;
4047;SDS011;2038;51.728;6.674;2023-07-29T09:23:15;6.03;;;2.87;;
4047;SDS011;2038;51.728;6.674;2023-07-29T09:25:42;4.40;;;3.07;;
4047;SDS011;2038;51.728;6.674;2023-07-29T09:28:13;4.30;;;3.10;;
4047;SDS011;2038;51.728;6.674;2023-07-29T09:30:42;6.67;;;3.03;;
4047;SDS011;2038;51.728;6.674;2023-07-29T09:33:11;2.67;;;2.47;;
4047;SDS011;2038;51.728;6.674;2023-07-29T09:35:38;3.40;;;2.73;;
4047;SDS011;2038;51.728;6.674;2023-07-29T09:38:05;3.90;;;3.50;;
4047;SDS011;2038;51.728;6.674;2023-07-29T09:40:38;4.40;;;2.07;;
4047;SDS011;2038;51.728;6.674;2023-07-29T09:43:07;2.97;;;2.67;;
4047;SDS011;2038;51.728;6.674;2023-07-29T09:45:35;5.53;;;2.20;;
4047;SDS011;2038;51.728;6.674;2023-07-29T09:48:02;2.40;;;2.20;;
4047;SDS011;2038;51.728;6.674;2023-07-29T09:50:34;4.00;;;3.00;;
4047;SDS011;2038;51.728;6.674;2023-07-29T09:53:01;3.60;;;2.80;;
4047;SDS011;2038;51.728;6.674;2023-07-29T09:55:28;3.00;;;2.60;;
4047;SDS011;2038;51.728;6.674;2023-07-29T09:57:59;4.60;;;2.80;;
4047;SDS011;2038;51.728;6.674;2023-07-29T10:00:29;3.90;;;2.77;;
4047;SDS011;2038;51.728;6.674;2023-07-29T10:02:57;3.10;;;2.80;;
4047;SDS011;2038;51.728;6.674;2023-07-29T10:05:27;4.80;;;2.50;;
4047;SDS011;2038;51.728;6.674;2023-07-29T10:07:54;2.50;;;2.30;;
4047;SDS011;2038;51.728;6.674;2023-07-29T10:10:21;4.60;;;2.70;;
4047;SDS011;2038;51.728;6.674;2023-07-29T10:12:48;4.83;;;2.50;;
4047;SDS011;2038;51.728;6.674;2023-07-29T10:15:17;3.67;;;2.60;;
4047;SDS011;2038;51.728;6.674;2023-07-29T10:17:43;2.90;;;2.00;;
4047;SDS011;2038;51.728;6.674;2023-07-29T10:20:11;2.50;;;2.00;;
4047;SDS011;2038;51.728;6.674;2023-07-29T10:22:39;4.27;;;2.20;;
4047;SDS011;2038;51.728;6.674;2023-07-29T10:25:08;2.03;;;1.93;;
4047;SDS011;2038;51.728;6.674;2023-07-29T10:27:56;4.10;;;2.77;;
4047;SDS011;2038;51.728;6.674;2023-07-29T10:30:32;3.60;;;2.53;;
4047;SDS011;2038;51.728;6.674;2023-07-29T10:33:01;4.40;;;3.10;;
4047;SDS011;2038;51.728;6.674;2023-07-29T10:35:30;3.60;;;2.20;;
4047;SDS011;2038;51.728;6.674;2023-07-29T10:38:00;2.63;;;2.20;;
4047;SDS011;2038;51.728;6.674;2023-07-29T10:40:43;3.37;;;2.00;;
4047;SDS011;2038;51.728;6.674;2023-07-29T10:43:25;4.47;;;2.47;;
4047;SDS011;2038;51.728;6.674;2023-07-29T10:45:57;2.13;;;1.93;;
4047;SDS011;2038;51.728;6.674;2023-07-29T10:48:42;3.07;;;2.07;;
4047;SDS011;2038;51.728;6.674;2023-07-29T10:51:29;2.30;;;2.10;;
4047;SDS011;2038;51.728;6.674;2023-07-29T10:54:13;4.90;;;2.30;;
4047;SDS011;2038;51.728;6.674;2023-07-29T10:56:41;3.10;;;2.07;;
4047;SDS011;2038;51.728;6.674;2023-07-29T11:01:42;3.73;;;1.90;;
4047;SDS011;2038;51.728;6.674;2023-07-29T11:15:04;4.73;;;2.00;;
4047;SDS011;2038;51.728;6.674;2023-07-29T11:20:14;3.20;;;2.10;;
4047;SDS011;2038;51.728;6.674;2023-07-29T11:22:42;3.03;;;1.70;;
4047;SDS011;2038;51.728;6.674;2023-07-29T11:25:10;2.33;;;1.60;;
4047;SDS011;2038;51.728;6.674;2023-07-29T11:27:40;3.63;;;3.10;;
4047;SDS011;2038;51.728;6.674;2023-07-29T11:30:07;2.57;;;1.97;;
4047;SDS011;2038;51.728;6.674;2023-07-29T11:32:39;2.63;;;2.03;;
4047;SDS011;2038;51.728;6.674;2023-07-29T11:35:08;2.17;;;1.97;;
4047;SDS011;2038;51.728;6.674;2023-07-29T11:37:43;3.23;;;2.17;;
4047;SDS011;2038;51.728;6.674;2023-07-29T11:40:15;3.90;;;1.90;;
4047;SDS011;2038;51.728;6.674;2023-07-29T11:42:45;2.83;;;1.67;;
4047;SDS011;2038;51.728;6.674;2023-07-29T11:45:13;1.93;;;1.70;;
4047;SDS011;2038;51.728;6.674;2023-07-29T11:47:40;2.43;;;2.07;;
4047;SDS011;2038;51.728;6.674;2023-07-29T11:50:07;1.80;;;1.60;;
4047;SDS011;2038;51.728;6.674;2023-07-29T11:52:36;3.60;;;1.80;;
4047;SDS011;2038;51.728;6.674;2023-07-29T11:55:05;2.67;;;1.70;;
4047;SDS011;2038;51.728;6.674;2023-07-29T11:57:35;2.47;;;1.87;;
4047;SDS011;2038;51.728;6.674;2023-07-29T12:00:04;2.60;;;2.30;;
4047;SDS011;2038;51.728;6.674;2023-07-29T12:02:35;2.20;;;2.00;;
4047;SDS011;2038;51.728;6.674;2023-07-29T12:05:10;2.80;;;1.70;;
4047;SDS011;2038;51.728;6.674;2023-07-29T12:07:39;6.23;;;2.50;;
4047;SDS011;2038;51.728;6.674;2023-07-29T12:10:07;2.37;;;1.90;;
4047;SDS011;2038;51.728;6.674;2023-07-29T12:12:47;2.30;;;1.87;;
4047;SDS011;2038;51.728;6.674;2023-07-29T12:15:28;2.33;;;1.93;;
4047;SDS011;2038;51.728;6.674;2023-07-29T12:17:55;2.80;;;2.10;;
4047;SDS011;2038;51.728;6.674;2023-07-29T12:20:23;2.03;;;1.50;;
4047;SDS011;2038;51.728;6.674;2023-07-29T12:22:57;1.93;;;1.73;;
4047;SDS011;2038;51.728;6.674;2023-07-29T12:25:30;2.20;;;2.00;;
4047;SDS011;2038;51.728;6.674;2023-07-29T12:27:56;2.77;;;1.97;;
4047;SDS011;2038;51.728;6.674;2023-07-29T12:30:31;4.43;;;2.20;;
4047;SDS011;2038;51.728;6.674;2023-07-29T12:32:58;5.43;;;2.30;;
4047;SDS011;2038;51.728;6.674;2023-07-29T12:35:24;2.80;;;2.17;;
4047;SDS011;2038;51.728;6.674;2023-07-29T12:38:00;10.90;;;2.23;;
4047;SDS011;2038;51.728;6.674;2023-07-29T12:40:26;3.87;;;2.23;;
4047;SDS011;2038;51.728;6.674;2023-07-29T12:42:53;2.10;;;1.60;;
4047;SDS011;2038;51.728;6.674;2023-07-29T12:45:20;3.67;;;2.17;;
4047;SDS011;2038;51.728;6.674;2023-07-29T12:47:51;2.73;;;2.27;;
4047;SDS011;2038;51.728;6.674;2023-07-29T12:50:18;2.40;;;2.10;;
4047;SDS011;2038;51.728;6.674;2023-07-29T12:52:45;3.80;;;2.40;;
4047;SDS011;2038;51.728;6.674;2023-07-29T12:55:12;5.80;;;1.97;;
4047;SDS011;2038;51.728;6.674;2023-07-29T12:57:39;3.00;;;2.37;;
4047;SDS011;2038;51.728;6.674;2023-07-29T13:00:09;2.03;;;1.60;;
4047;SDS011;2038;51.728;6.674;2023-07-29T13:02:37;2.93;;;2.20;;
4047;SDS011;2038;51.728;6.674;2023-07-29T13:05:03;2.20;;;1.87;;
4047;SDS011;2038;51.728;6.674;2023-07-29T13:07:31;2.40;;;1.90;;
4047;SDS011;2038;51.728;6.674;2023-07-29T13:09:57;2.60;;;2.40;;
4047;SDS011;2038;51.728;6.674;2023-07-29T13:12:23;3.07;;;1.67;;
4047;SDS011;2038;51.728;6.674;2023-07-29T13:14:49;2.60;;;2.00;;
4047;SDS011;2038;51.728;6.674;2023-07-29T13:17:16;2.80;;;2.30;;
4047;SDS011;2038;51.728;6.674;2023-07-29T13:19:42;3.83;;;2.70;;
4047;SDS011;2038;51.728;6.674;2023-07-29T13:22:08;3.87;;;2.50;;
4047;SDS011;2038;51.728;6.674;2023-07-29T13:24:34;3.67;;;2.40;;
4047;SDS011;2038;51.728;6.674;2023-07-29T13:27:00;4.57;;;2.93;;
4047;SDS011;2038;51.728;6.674;2023-07-29T13:29:26;3.60;;;2.17;;
4047;SDS011;2038;51.728;6.674;2023-07-29T13:31:53;5.47;;;1.20;;
4047;SDS011;2038;51.728;6.674;2023-07-29T13:34:19;3.30;;;1.90;;
4047;SDS011;2038;51.728;6.674;2023-07-29T13:36:45;2.30;;;1.43;;
4047;SDS011;2038;51.728;6.674;2023-07-29T13:39:12;4.30;;;2.00;;
4047;SDS011;2038;51.728;6.674;2023-07-29T13:41:38;2.37;;;1.77;;
4047;SDS011;2038;51.728;6.674;2023-07-29T13:44:04;4.70;;;2.20;;
4047;SDS011;2038;51.728;6.674;2023-07-29T13:46:31;2.87;;;1.90;;
4047;SDS011;2038;51.728;6.674;2023-07-29T13:48:57;8.00;;;2.37;;
4047;SDS011;2038;51.728;6.674;2023-07-29T13:51:23;3.23;;;2.40;;
4047;SDS011;2038;51.728;6.674;2023-07-29T13:53:49;2.57;;;1.77;;
4047;SDS011;2038;51.728;6.674;2023-07-29T13:56:16;2.80;;;2.30;;
4047;SDS011;2038;51.728;6.674;2023-07-29T13:58:42;3.83;;;2.20;;
4047;SDS011;2038;51.728;6.674;2023-07-29T14:01:08;3.43;;;2.07;;
4047;SDS011;2038;51.728;6.674;2023-07-29T14:03:34;6.33;;;2.53;;
4047;SDS011;2038;51.728;6.674;2023-07-29T14:06:01;4.20;;;2.00;;
4047;SDS011;2038;51.728;6.674;2023-07-29T14:08:27;4.30;;;1.93;;
4047;SDS011;2038;51.728;6.674;2023-07-29T14:10:54;5.40;;;1.90;;
4047;SDS011;2038;51.728;6.674;2023-07-29T14:13:20;4.17;;;1.70;;
4047;SDS011;2038;51.728;6.674;2023-07-29T14:15:46;8.13;;;2.30;;
4047;SDS011;2038;51.728;6.674;2023-07-29T14:18:12;2.33;;;2.07;;
4047;SDS011;2038;51.728;6.674;2023-07-29T14:20:38;2.03;;;1.80;;
4047;SDS011;2038;51.728;6.674;2023-07-29T14:23:05;3.60;;;1.50;;
4047;SDS011;2038;51.728;6.674;2023-07-29T14:25:31;2.47;;;1.60;;
4047;SDS011;2038;51.728;6.674;2023-07-29T14:27:58;3.07;;;1.80;;
4047;SDS011;2038;51.728;6.674;2023-07-29T14:30:24;4.00;;;1.93;;
4047;SDS011;2038;51.728;6.674;2023-07-29T14:32:50;1.60;;;1.30;;
4047;SDS011;2038;51.728;6.674;2023-07-29T14:35:16;3.10;;;1.80;;
4047;SDS011;2038;51.728;6.674;2023-07-29T14:37:42;3.77;;;1.93;;
4047;SDS011;2038;51.728;6.674;2023-07-29T14:40:09;3.03;;;2.27;;
4047;SDS011;2038;51.728;6.674;2023-07-29T14:42:35;2.40;;;2.20;;
4047;SDS011;2038;51.728;6.674;2023-07-29T14:45:01;3.37;;;2.07;;
4047;SDS011;2038;51.728;6.674;2023-07-29T14:47:28;2.30;;;2.10;;
4047;SDS011;2038;51.728;6.674;2023-07-29T14:49:59;2.67;;;2.13;;
4047;SDS011;2038;51.728;6.674;2023-07-29T14:52:26;2.47;;;2.27;;
4047;SDS011;2038;51.728;6.674;2023-07-29T14:54:52;2.27;;;1.83;;
4047;SDS011;2038;51.728;6.674;2023-07-29T14:57:18;2.90;;;2.00;;
4047;SDS011;2038;51.728;6.674;2023-07-29T14:59:44;3.13;;;1.70;;
4047;SDS011;2038;51.728;6.674;2023-07-29T15:02:11;5.07;;;2.30;;
4047;SDS011;2038;51.728;6.674;2023-07-29T15:04:37;2.00;;;1.83;;
4047;SDS011;2038;51.728;6.674;2023-07-29T15:07:03;2.80;;;1.50;;
4047;SDS011;2038;51.728;6.674;2023-07-29T15:09:30;4.47;;;1.63;;
4047;SDS011;2038;51.728;6.674;2023-07-29T15:11:56;3.77;;;1.53;;
4047;SDS011;2038;51.728;6.674;2023-07-29T15:14:22;4.83;;;1.83;;
4047;SDS011;2038;51.728;6.674;2023-07-29T15:16:48;2.73;;;2.10;;
4047;SDS011;2038;51.728;6.674;2023-07-29T15:19:14;2.23;;;2.03;;
4047;SDS011;2038;51.728;6.674;2023-07-29T15:21:41;2.57;;;1.97;;
4047;SDS011;2038;51.728;6.674;2023-07-29T15:24:07;2.90;;;1.60;;
4047;SDS011;2038;51.728;6.674;2023-07-29T15:26:33;2.60;;;1.90;;
4047;SDS011;2038;51.728;6.674;2023-07-29T15:29:00;2.10;;;1.90;;
4047;SDS011;2038;51.728;6.674;2023-07-29T15:31:27;3.80;;;2.30;;
4047;SDS011;2038;51.728;6.674;2023-07-29T15:33:53;2.60;;;1.93;;
4047;SDS011;2038;51.728;6.674;2023-07-29T15:36:19;1.80;;;1.70;;
4047;SDS011;2038;51.728;6.674;2023-07-29T15:38:45;2.50;;;2.27;;
4047;SDS011;2038;51.728;6.674;2023-07-29T15:41:12;3.90;;;2.20;;
4047;SDS011;2038;51.728;6.674;2023-07-29T15:43:38;3.60;;;2.90;;